Arbyrd, Missouri
Current Conditions -  °F | °C
As of 1:53 AM on Monday 24 Nov 2014 (Local Time) from KHKA Reporting Station
Overcast Overcast  
Wind Chill: 19°   Ceiling: 2700
Heat Index: 19°   Visibility: 10mi
Dew Point: 14°   Wind: 23mph
Humidity: 73%   Direction: 220°SW
Pressure: 29.38"   Gusts: 32mph
Location:  36.05°N, 90.24°W
Report Text: KHKA 240753Z AUTO 22020G28KT 10SM BKN027 OVC036 19/14 A2938 RMK AO2 PK WND 21031/0737 SLP948 T01890139 $
Loading
Personal Weather Stations






























Interactive Weather Map New forecast layout! Learn more

10-Day Weather Forecast

Advertisements
Track Severe Weather on mobile